sensor_id;sensor_type;location;lat;lon;timestamp;pressure;altitude;pressure_sealevel;temperature;humidity
4199;BME280;2113;50.946;14.610;2023-12-28T00:00:03;97041.56;;;3.04;78.50
4199;BME280;2113;50.946;14.610;2023-12-28T00:02:33;97043.34;;;3.03;77.64
4199;BME280;2113;50.946;14.610;2023-12-28T00:05:02;97043.34;;;3.03;77.87
4199;BME280;2113;50.946;14.610;2023-12-28T00:07:31;97037.09;;;2.96;77.91
4199;BME280;2113;50.946;14.610;2023-12-28T00:09:59;97038.84;;;2.96;77.72
4199;BME280;2113;50.946;14.610;2023-12-28T00:12:29;97038.72;;;2.80;78.06
4199;BME280;2113;50.946;14.610;2023-12-28T00:14:57;97036.66;;;2.83;78.03
4199;BME280;2113;50.946;14.610;2023-12-28T00:17:26;97034.63;;;2.77;78.51
4199;BME280;2113;50.946;14.610;2023-12-28T00:19:56;97031.56;;;2.82;77.34
4199;BME280;2113;50.946;14.610;2023-12-28T00:22:24;97026.06;;;2.85;77.42
4199;BME280;2113;50.946;14.610;2023-12-28T00:24:53;97019.44;;;2.72;78.03
4199;BME280;2113;50.946;14.610;2023-12-28T00:27:21;97025.63;;;2.71;78.25
4199;BME280;2113;50.946;14.610;2023-12-28T00:29:51;97029.47;;;2.67;78.51
4199;BME280;2113;50.946;14.610;2023-12-28T00:32:19;97033.34;;;2.63;78.45
4199;BME280;2113;50.946;14.610;2023-12-28T00:34:48;97034.16;;;2.64;78.41
4199;BME280;2113;50.946;14.610;2023-12-28T00:37:17;97029.78;;;2.64;78.23
4199;BME280;2113;50.946;14.610;2023-12-28T00:39:46;97021.97;;;2.64;78.26
4199;BME280;2113;50.946;14.610;2023-12-28T00:42:17;97017.44;;;2.66;78.47
4199;BME280;2113;50.946;14.610;2023-12-28T00:44:46;97016.97;;;2.53;79.18
4199;BME280;2113;50.946;14.610;2023-12-28T00:47:14;97009.16;;;2.53;79.81
4199;BME280;2113;50.946;14.610;2023-12-28T00:49:42;97025.38;;;2.47;80.16
4199;BME280;2113;50.946;14.610;2023-12-28T00:52:11;97026.31;;;2.46;80.50
4199;BME280;2113;50.946;14.610;2023-12-28T00:54:42;97032.97;;;2.40;81.03
4199;BME280;2113;50.946;14.610;2023-12-28T00:57:10;97021.44;;;2.43;81.38
4199;BME280;2113;50.946;14.610;2023-12-28T00:59:40;97015.34;;;2.52;80.84
4199;BME280;2113;50.946;14.610;2023-12-28T01:02:09;97011.31;;;2.40;81.67
4199;BME280;2113;50.946;14.610;2023-12-28T01:04:37;97012.19;;;2.31;81.89
4199;BME280;2113;50.946;14.610;2023-12-28T01:07:06;97009.06;;;2.45;81.29
4199;BME280;2113;50.946;14.610;2023-12-28T01:09:34;97004.84;;;2.44;81.21
4199;BME280;2113;50.946;14.610;2023-12-28T01:12:05;97002.25;;;2.44;80.88
4199;BME280;2113;50.946;14.610;2023-12-28T01:14:33;97009.06;;;2.45;81.31
4199;BME280;2113;50.946;14.610;2023-12-28T01:17:01;97011.31;;;2.58;80.39
4199;BME280;2113;50.946;14.610;2023-12-28T01:24:20;96997.09;;;2.52;80.82
4199;BME280;2113;50.946;14.610;2023-12-28T01:27:17;97008.22;;;2.54;80.05
4199;BME280;2113;50.946;14.610;2023-12-28T01:29:46;97001.34;;;2.53;80.46
4199;BME280;2113;50.946;14.610;2023-12-28T01:32:15;96989.03;;;2.55;80.31
4199;BME280;2113;50.946;14.610;2023-12-28T01:34:43;96987.91;;;2.58;80.38
4199;BME280;2113;50.946;14.610;2023-12-28T01:37:12;96989.31;;;2.52;80.08
4199;BME280;2113;50.946;14.610;2023-12-28T01:39:40;96985.97;;;2.42;80.89
4199;BME280;2113;50.946;14.610;2023-12-28T01:42:09;96990.94;;;2.53;80.30
4199;BME280;2113;50.946;14.610;2023-12-28T01:44:38;96981.88;;;2.57;79.70
4199;BME280;2113;50.946;14.610;2023-12-28T01:47:07;96972.44;;;2.56;80.29
4199;BME280;2113;50.946;14.610;2023-12-28T01:49:36;96974.13;;;2.65;79.90
4199;BME280;2113;50.946;14.610;2023-12-28T01:52:06;96979.28;;;2.57;79.34
4199;BME280;2113;50.946;14.610;2023-12-28T01:54:35;96973.53;;;2.71;78.91
4199;BME280;2113;50.946;14.610;2023-12-28T01:57:04;96959.56;;;2.72;78.41
4199;BME280;2113;50.946;14.610;2023-12-28T01:59:33;96957.59;;;2.74;78.78
4199;BME280;2113;50.946;14.610;2023-12-28T02:02:03;96951.34;;;2.67;78.27
4199;BME280;2113;50.946;14.610;2023-12-28T02:04:31;96943.25;;;2.70;77.98
4199;BME280;2113;50.946;14.610;2023-12-28T02:07:01;96932.78;;;2.62;77.79
4199;BME280;2113;50.946;14.610;2023-12-28T02:09:29;96937.78;;;2.56;77.76
4199;BME280;2113;50.946;14.610;2023-12-28T02:11:59;96945.88;;;2.70;77.33
4199;BME280;2113;50.946;14.610;2023-12-28T02:14:27;96938.56;;;2.92;76.97
4199;BME280;2113;50.946;14.610;2023-12-28T02:17:00;96929.81;;;3.01;76.65
4199;BME280;2113;50.946;14.610;2023-12-28T02:19:41;96915.75;;;2.94;76.90
4199;BME280;2113;50.946;14.610;2023-12-28T02:22:13;96924.34;;;2.86;77.18
4199;BME280;2113;50.946;14.610;2023-12-28T02:25:03;96912.50;;;2.92;77.22
4199;BME280;2113;50.946;14.610;2023-12-28T02:27:33;96899.31;;;2.93;76.68
4199;BME280;2113;50.946;14.610;2023-12-28T02:30:04;96892.63;;;2.91;77.61
4199;BME280;2113;50.946;14.610;2023-12-28T02:32:39;96918.63;;;2.83;77.91
4199;BME280;2113;50.946;14.610;2023-12-28T02:35:16;96901.81;;;2.77;78.11
4199;BME280;2113;50.946;14.610;2023-12-28T02:37:48;96909.41;;;2.70;78.25
4199;BME280;2113;50.946;14.610;2023-12-28T02:40:21;96894.00;;;2.77;77.75
4199;BME280;2113;50.946;14.610;2023-12-28T02:42:50;96900.94;;;2.68;78.42
4199;BME280;2113;50.946;14.610;2023-12-28T02:45:18;96894.22;;;2.66;77.99
4199;BME280;2113;50.946;14.610;2023-12-28T02:47:47;96899.59;;;2.64;77.54
4199;BME280;2113;50.946;14.610;2023-12-28T02:50:15;96883.88;;;2.74;77.83
4199;BME280;2113;50.946;14.610;2023-12-28T02:52:43;96883.97;;;2.64;77.59
4199;BME280;2113;50.946;14.610;2023-12-28T02:55:12;96860.78;;;2.53;78.25
4199;BME280;2113;50.946;14.610;2023-12-28T02:57:43;96871.81;;;2.47;78.14
4199;BME280;2113;50.946;14.610;2023-12-28T03:00:13;96869.56;;;2.52;77.64
4199;BME280;2113;50.946;14.610;2023-12-28T03:02:41;96870.81;;;2.66;77.04
4199;BME280;2113;50.946;14.610;2023-12-28T03:05:10;96876.88;;;2.48;77.15
4199;BME280;2113;50.946;14.610;2023-12-28T03:07:38;96888.16;;;2.57;76.94
4199;BME280;2113;50.946;14.610;2023-12-28T03:10:08;96903.84;;;2.30;78.23
4199;BME280;2113;50.946;14.610;2023-12-28T03:12:41;96895.91;;;2.49;76.88
4199;BME280;2113;50.946;14.610;2023-12-28T03:15:10;96905.34;;;2.94;74.65
4199;BME280;2113;50.946;14.610;2023-12-28T03:17:38;96908.22;;;3.09;73.54
4199;BME280;2113;50.946;14.610;2023-12-28T03:20:09;96904.75;;;3.00;74.15
4199;BME280;2113;50.946;14.610;2023-12-28T03:22:38;96890.47;;;2.86;74.50
4199;BME280;2113;50.946;14.610;2023-12-28T03:25:08;96907.69;;;2.79;75.05
4199;BME280;2113;50.946;14.610;2023-12-28T03:27:36;96890.53;;;2.94;73.98
4199;BME280;2113;50.946;14.610;2023-12-28T03:30:07;96896.41;;;3.22;72.22
4199;BME280;2113;50.946;14.610;2023-12-28T03:32:38;96889.75;;;3.02;73.47
4199;BME280;2113;50.946;14.610;2023-12-28T03:35:06;96882.63;;;2.60;74.88
4199;BME280;2113;50.946;14.610;2023-12-28T03:37:34;96881.38;;;2.46;75.76
4199;BME280;2113;50.946;14.610;2023-12-28T03:40:04;96887.00;;;2.34;76.70
4199;BME280;2113;50.946;14.610;2023-12-28T03:42:32;96892.63;;;2.47;75.73
4199;BME280;2113;50.946;14.610;2023-12-28T03:45:00;96892.75;;;2.63;75.32
4199;BME280;2113;50.946;14.610;2023-12-28T03:47:31;96898.88;;;2.54;75.74
4199;BME280;2113;50.946;14.610;2023-12-28T03:49:59;96892.84;;;2.36;76.72
4199;BME280;2113;50.946;14.610;2023-12-28T03:52:28;96910.22;;;2.71;75.75
4199;BME280;2113;50.946;14.610;2023-12-28T03:54:57;96907.56;;;2.45;75.88
4199;BME280;2113;50.946;14.610;2023-12-28T03:57:25;96910.25;;;2.35;76.98
4199;BME280;2113;50.946;14.610;2023-12-28T03:59:54;96911.81;;;2.28;77.25
4199;BME280;2113;50.946;14.610;2023-12-28T04:02:22;96928.94;;;2.03;78.41
4199;BME280;2113;50.946;14.610;2023-12-28T04:04:53;96927.72;;;2.07;78.46
4199;BME280;2113;50.946;14.610;2023-12-28T04:07:22;96927.34;;;1.75;79.04
4199;BME280;2113;50.946;14.610;2023-12-28T04:09:51;96938.88;;;1.90;78.60
4199;BME280;2113;50.946;14.610;2023-12-28T04:12:20;96927.41;;;1.83;78.53
4199;BME280;2113;50.946;14.610;2023-12-28T04:14:49;96924.63;;;1.94;78.17
4199;BME280;2113;50.946;14.610;2023-12-28T04:17:18;96928.94;;;1.85;78.58
4199;BME280;2113;50.946;14.610;2023-12-28T04:19:46;96937.47;;;1.78;79.05
4199;BME280;2113;50.946;14.610;2023-12-28T04:22:16;96953.16;;;1.86;79.61
4199;BME280;2113;50.946;14.610;2023-12-28T04:24:44;96958.75;;;1.91;79.69
4199;BME280;2113;50.946;14.610;2023-12-28T04:27:12;96958.25;;;1.78;79.73
4199;BME280;2113;50.946;14.610;2023-12-28T04:29:40;96953.81;;;1.60;79.54
4199;BME280;2113;50.946;14.610;2023-12-28T04:32:09;96962.16;;;1.54;80.41
4199;BME280;2113;50.946;14.610;2023-12-28T04:34:37;96971.22;;;1.50;80.13
4199;BME280;2113;50.946;14.610;2023-12-28T04:37:07;96970.47;;;1.30;80.48
4199;BME280;2113;50.946;14.610;2023-12-28T04:39:37;96961.41;;;1.44;80.49
4199;BME280;2113;50.946;14.610;2023-12-28T04:42:06;96958.09;;;1.52;79.94
4199;BME280;2113;50.946;14.610;2023-12-28T04:44:37;96942.66;;;1.50;79.75
4199;BME280;2113;50.946;14.610;2023-12-28T04:47:06;96933.59;;;1.82;78.12
4199;BME280;2113;50.946;14.610;2023-12-28T04:49:35;96929.75;;;1.86;78.09
4199;BME280;2113;50.946;14.610;2023-12-28T04:52:04;96928.38;;;1.82;77.55
4199;BME280;2113;50.946;14.610;2023-12-28T04:54:33;96939.56;;;1.92;77.62
4199;BME280;2113;50.946;14.610;2023-12-28T04:57:03;96945.34;;;1.86;77.59
4199;BME280;2113;50.946;14.610;2023-12-28T04:59:31;96957.44;;;1.77;78.38
4199;BME280;2113;50.946;14.610;2023-12-28T05:01:59;96943.47;;;2.06;76.03
4199;BME280;2113;50.946;14.610;2023-12-28T05:04:29;96940.47;;;2.01;76.72
4199;BME280;2113;50.946;14.610;2023-12-28T05:06:57;96934.38;;;1.92;76.21
4199;BME280;2113;50.946;14.610;2023-12-28T05:09:25;96938.53;;;1.85;76.64
4199;BME280;2113;50.946;14.610;2023-12-28T05:11:54;96927.00;;;1.87;76.86
4199;BME280;2113;50.946;14.610;2023-12-28T05:14:24;96919.00;;;1.99;77.31
4199;BME280;2113;50.946;14.610;2023-12-28T05:16:52;96927.16;;;1.86;77.53
4199;BME280;2113;50.946;14.610;2023-12-28T05:19:20;96922.56;;;1.98;77.13
4199;BME280;2113;50.946;14.610;2023-12-28T05:21:48;96908.13;;;1.85;77.14
4199;BME280;2113;50.946;14.610;2023-12-28T05:24:17;96909.41;;;2.17;76.83
4199;BME280;2113;50.946;14.610;2023-12-28T05:26:45;96914.97;;;2.04;76.89
4199;BME280;2113;50.946;14.610;2023-12-28T05:29:14;96922.19;;;2.10;76.23
4199;BME280;2113;50.946;14.610;2023-12-28T05:31:43;96917.88;;;2.01;77.27
4199;BME280;2113;50.946;14.610;2023-12-28T05:34:12;96919.97;;;2.15;76.23
4199;BME280;2113;50.946;14.610;2023-12-28T05:36:40;96923.25;;;2.17;77.05
4199;BME280;2113;50.946;14.610;2023-12-28T05:39:12;96922.66;;;2.24;76.81
4199;BME280;2113;50.946;14.610;2023-12-28T05:41:41;96913.69;;;2.36;76.01
4199;BME280;2113;50.946;14.610;2023-12-28T05:44:09;96926.38;;;2.39;76.28
4199;BME280;2113;50.946;14.610;2023-12-28T05:46:37;96924.91;;;2.36;76.35
4199;BME280;2113;50.946;14.610;2023-12-28T05:49:07;96911.56;;;2.39;76.69
4199;BME280;2113;50.946;14.610;2023-12-28T05:51:38;96915.91;;;2.31;76.56
4199;BME280;2113;50.946;14.610;2023-12-28T05:54:08;96925.88;;;2.35;77.01
4199;BME280;2113;50.946;14.610;2023-12-28T05:57:01;96924.53;;;2.31;77.39
4199;BME280;2113;50.946;14.610;2023-12-28T05:59:30;96917.38;;;2.69;74.55
4199;BME280;2113;50.946;14.610;2023-12-28T06:01:58;96919.50;;;2.73;74.45
4199;BME280;2113;50.946;14.610;2023-12-28T06:04:28;96905.25;;;2.78;74.40
4199;BME280;2113;50.946;14.610;2023-12-28T06:06:56;96899.88;;;2.79;74.49
4199;BME280;2113;50.946;14.610;2023-12-28T06:09:24;96880.94;;;2.95;73.97
4199;BME280;2113;50.946;14.610;2023-12-28T06:11:54;96875.88;;;3.19;71.87
4199;BME280;2113;50.946;14.610;2023-12-28T06:14:22;96883.38;;;3.22;72.02
4199;BME280;2113;50.946;14.610;2023-12-28T06:16:50;96884.38;;;3.29;71.81
4199;BME280;2113;50.946;14.610;2023-12-28T06:19:18;96880.34;;;3.35;71.67
4199;BME280;2113;50.946;14.610;2023-12-28T06:21:48;96902.25;;;3.50;70.77
4199;BME280;2113;50.946;14.610;2023-12-28T06:24:17;96912.44;;;3.36;72.24
4199;BME280;2113;50.946;14.610;2023-12-28T06:26:45;96902.72;;;3.46;70.93
4199;BME280;2113;50.946;14.610;2023-12-28T06:29:13;96906.06;;;3.72;69.46
4199;BME280;2113;50.946;14.610;2023-12-28T06:31:41;96914.25;;;3.77;69.28
4199;BME280;2113;50.946;14.610;2023-12-28T06:34:10;96918.53;;;3.86;69.06
4199;BME280;2113;50.946;14.610;2023-12-28T06:36:39;96926.06;;;3.98;68.08
4199;BME280;2113;50.946;14.610;2023-12-28T06:39:09;96923.81;;;4.03;69.24
4199;BME280;2113;50.946;14.610;2023-12-28T06:41:38;96922.28;;;3.92;70.02
4199;BME280;2113;50.946;14.610;2023-12-28T06:44:06;96919.47;;;3.77;71.30
4199;BME280;2113;50.946;14.610;2023-12-28T06:46:35;96920.66;;;3.83;70.01
4199;BME280;2113;50.946;14.610;2023-12-28T06:49:03;96912.81;;;3.83;71.11
4199;BME280;2113;50.946;14.610;2023-12-28T06:51:37;96924.34;;;3.72;72.22
4199;BME280;2113;50.946;14.610;2023-12-28T06:54:05;96931.06;;;3.83;71.10
4199;BME280;2113;50.946;14.610;2023-12-28T06:56:35;96935.75;;;3.71;73.07
4199;BME280;2113;50.946;14.610;2023-12-28T06:59:03;96932.50;;;3.69;72.35
4199;BME280;2113;50.946;14.610;2023-12-28T07:01:33;96934.13;;;3.70;72.58
4199;BME280;2113;50.946;14.610;2023-12-28T07:04:01;96938.00;;;3.66;72.99
4199;BME280;2113;50.946;14.610;2023-12-28T07:06:30;96957.47;;;3.46;75.80
4199;BME280;2113;50.946;14.610;2023-12-28T07:08:59;96969.81;;;3.44;76.72
4199;BME280;2113;50.946;14.610;2023-12-28T07:11:27;96969.38;;;3.48;76.85
4199;BME280;2113;50.946;14.610;2023-12-28T07:13:57;96984.66;;;3.43;76.35
4199;BME280;2113;50.946;14.610;2023-12-28T07:16:25;96988.13;;;3.52;75.16
4199;BME280;2113;50.946;14.610;2023-12-28T07:18:54;96995.00;;;3.53;75.73
4199;BME280;2113;50.946;14.610;2023-12-28T07:21:22;96992.72;;;3.58;75.78
4199;BME280;2113;50.946;14.610;2023-12-28T07:23:51;96974.84;;;3.63;75.58
4199;BME280;2113;50.946;14.610;2023-12-28T07:26:19;96974.84;;;3.63;74.26
4199;BME280;2113;50.946;14.610;2023-12-28T07:28:47;96963.66;;;3.79;73.75
4199;BME280;2113;50.946;14.610;2023-12-28T07:31:24;96964.56;;;3.96;72.43
4199;BME280;2113;50.946;14.610;2023-12-28T07:33:53;96964.69;;;3.94;72.10
4199;BME280;2113;50.946;14.610;2023-12-28T07:36:22;96965.84;;;4.00;71.83
4199;BME280;2113;50.946;14.610;2023-12-28T07:38:50;96981.75;;;3.80;73.58
4199;BME280;2113;50.946;14.610;2023-12-28T07:41:19;96979.50;;;3.85;73.21
4199;BME280;2113;50.946;14.610;2023-12-28T07:43:48;96971.16;;;3.74;74.51
4199;BME280;2113;50.946;14.610;2023-12-28T07:46:16;96969.19;;;3.76;72.57
4199;BME280;2113;50.946;14.610;2023-12-28T07:48:47;96954.03;;;3.79;73.40
4199;BME280;2113;50.946;14.610;2023-12-28T07:51:15;96950.72;;;3.61;75.00
4199;BME280;2113;50.946;14.610;2023-12-28T07:53:43;96980.59;;;3.75;72.40
4199;BME280;2113;50.946;14.610;2023-12-28T07:56:11;97005.56;;;3.77;73.14
4199;BME280;2113;50.946;14.610;2023-12-28T07:58:39;97000.38;;;3.85;72.49
4199;BME280;2113;50.946;14.610;2023-12-28T08:01:09;96991.94;;;3.92;71.21
4199;BME280;2113;50.946;14.610;2023-12-28T08:03:39;97011.53;;;3.96;72.39
4199;BME280;2113;50.946;14.610;2023-12-28T08:06:09;96998.41;;;3.88;72.12
4199;BME280;2113;50.946;14.610;2023-12-28T08:08:40;96992.09;;;3.90;73.41
4199;BME280;2113;50.946;14.610;2023-12-28T08:11:08;96987.63;;;3.74;73.99
4199;BME280;2113;50.946;14.610;2023-12-28T08:13:36;97001.22;;;3.60;75.13
4199;BME280;2113;50.946;14.610;2023-12-28T08:16:05;97000.91;;;3.63;74.14
4199;BME280;2113;50.946;14.610;2023-12-28T08:18:33;97000.59;;;3.66;75.24
4199;BME280;2113;50.946;14.610;2023-12-28T08:21:02;96997.59;;;3.53;76.43
4199;BME280;2113;50.946;14.610;2023-12-28T08:23:32;97009.31;;;3.49;76.62
4199;BME280;2113;50.946;14.610;2023-12-28T08:26:01;97008.28;;;3.42;76.81
4199;BME280;2113;50.946;14.610;2023-12-28T08:28:30;97000.91;;;3.37;77.63
4199;BME280;2113;50.946;14.610;2023-12-28T08:30:58;97006.94;;;3.38;76.40
4199;BME280;2113;50.946;14.610;2023-12-28T08:33:27;97005.00;;;3.40;76.33
4199;BME280;2113;50.946;14.610;2023-12-28T08:35:56;97000.81;;;3.47;76.61
4199;BME280;2113;50.946;14.610;2023-12-28T08:38:24;97010.44;;;3.46;76.87
4199;BME280;2113;50.946;14.610;2023-12-28T08:40:54;97016.25;;;3.40;76.92
4199;BME280;2113;50.946;14.610;2023-12-28T08:43:22;97008.28;;;3.42;76.07
4199;BME280;2113;50.946;14.610;2023-12-28T08:45:50;96996.72;;;3.44;76.20
4199;BME280;2113;50.946;14.610;2023-12-28T08:48:18;96987.88;;;3.37;77.16
4199;BME280;2113;50.946;14.610;2023-12-28T08:50:48;97004.69;;;3.43;76.62
4199;BME280;2113;50.946;14.610;2023-12-28T08:53:17;97022.28;;;3.41;76.37
4199;BME280;2113;50.946;14.610;2023-12-28T08:55:45;97014.84;;;3.46;76.56
4199;BME280;2113;50.946;14.610;2023-12-28T08:58:15;97019.13;;;3.55;76.39
4199;BME280;2113;50.946;14.610;2023-12-28T09:00:43;97022.72;;;3.54;76.18
4199;BME280;2113;50.946;14.610;2023-12-28T09:03:12;97032.31;;;3.53;75.94
4199;BME280;2113;50.946;14.610;2023-12-28T09:05:41;97045.41;;;3.62;75.73
4199;BME280;2113;50.946;14.610;2023-12-28T09:08:09;97038.03;;;3.57;76.00
4199;BME280;2113;50.946;14.610;2023-12-28T09:10:39;97052.38;;;3.53;76.19
4199;BME280;2113;50.946;14.610;2023-12-28T09:13:16;97052.19;;;3.54;76.60
4199;BME280;2113;50.946;14.610;2023-12-28T09:15:45;97056.13;;;3.58;76.06
4199;BME280;2113;50.946;14.610;2023-12-28T09:18:14;97056.13;;;3.58;75.70
4199;BME280;2113;50.946;14.610;2023-12-28T09:20:42;97052.84;;;3.56;76.01
4199;BME280;2113;50.946;14.610;2023-12-28T09:23:11;97042.97;;;3.60;77.04
4199;BME280;2113;50.946;14.610;2023-12-28T09:25:40;97052.84;;;3.56;77.00
4199;BME280;2113;50.946;14.610;2023-12-28T09:28:08;97054.81;;;3.54;77.02
4199;BME280;2113;50.946;14.610;2023-12-28T09:30:38;97056.94;;;3.59;76.24
4199;BME280;2113;50.946;14.610;2023-12-28T09:33:06;97057.56;;;3.53;76.85
4199;BME280;2113;50.946;14.610;2023-12-28T09:35:34;97051.00;;;3.49;76.62
4199;BME280;2113;50.946;14.610;2023-12-28T09:38:03;97048.19;;;3.60;76.30
4199;BME280;2113;50.946;14.610;2023-12-28T09:40:32;97041.00;;;3.62;76.36
4199;BME280;2113;50.946;14.610;2023-12-28T09:43:06;97039.31;;;3.79;76.08
4199;BME280;2113;50.946;14.610;2023-12-28T09:45:39;97045.81;;;3.75;75.50
4199;BME280;2113;50.946;14.610;2023-12-28T09:48:07;97037.84;;;3.76;75.61
4199;BME280;2113;50.946;14.610;2023-12-28T09:50:39;97049.16;;;3.93;75.63
4199;BME280;2113;50.946;14.610;2023-12-28T09:53:08;97042.03;;;3.95;75.84
4199;BME280;2113;50.946;14.610;2023-12-28T09:55:36;97042.22;;;4.02;74.92
4199;BME280;2113;50.946;14.610;2023-12-28T09:58:06;97042.53;;;4.07;74.90
4199;BME280;2113;50.946;14.610;2023-12-28T10:00:35;97035.69;;;4.06;75.75
4199;BME280;2113;50.946;14.610;2023-12-28T10:03:06;97028.13;;;4.29;75.28
4199;BME280;2113;50.946;14.610;2023-12-28T10:05:34;97011.69;;;4.45;73.90
4199;BME280;2113;50.946;14.610;2023-12-28T10:08:02;97006.34;;;4.54;74.02
4199;BME280;2113;50.946;14.610;2023-12-28T10:10:31;97004.88;;;4.52;73.62
4199;BME280;2113;50.946;14.610;2023-12-28T10:13:00;97004.19;;;4.58;73.34
4199;BME280;2113;50.946;14.610;2023-12-28T10:15:30;96997.22;;;4.75;72.96
4199;BME280;2113;50.946;14.610;2023-12-28T10:17:58;97018.66;;;4.94;73.61
4199;BME280;2113;50.946;14.610;2023-12-28T10:20:28;97011.78;;;4.93;73.08
4199;BME280;2113;50.946;14.610;2023-12-28T10:22:57;97018.47;;;5.04;73.56
4199;BME280;2113;50.946;14.610;2023-12-28T10:25:26;97002.97;;;5.11;72.78
4199;BME280;2113;50.946;14.610;2023-12-28T10:27:54;96996.44;;;5.23;72.37
4199;BME280;2113;50.946;14.610;2023-12-28T10:30:23;97003.91;;;5.34;72.30
4199;BME280;2113;50.946;14.610;2023-12-28T10:32:51;96995.41;;;5.48;71.17
4199;BME280;2113;50.946;14.610;2023-12-28T10:35:20;96988.38;;;5.57;71.90
4199;BME280;2113;50.946;14.610;2023-12-28T10:37:52;96985.41;;;5.60;70.32
4199;BME280;2113;50.946;14.610;2023-12-28T10:40:21;96978.72;;;5.66;69.96
4199;BME280;2113;50.946;14.610;2023-12-28T10:42:52;96989.84;;;5.51;70.72
4199;BME280;2113;50.946;14.610;2023-12-28T10:45:23;96987.56;;;5.48;71.43
4199;BME280;2113;50.946;14.610;2023-12-28T10:48:04;96986.22;;;5.61;70.82
4199;BME280;2113;50.946;14.610;2023-12-28T10:50:38;96980.53;;;5.49;71.43
4199;BME280;2113;50.946;14.610;2023-12-28T10:53:30;96984.28;;;5.55;70.71
4199;BME280;2113;50.946;14.610;2023-12-28T10:56:11;96982.00;;;5.51;71.33
4199;BME280;2113;50.946;14.610;2023-12-28T10:58:48;96981.50;;;5.56;70.40
4199;BME280;2113;50.946;14.610;2023-12-28T11:01:21;96983.63;;;5.53;70.98
4199;BME280;2113;50.946;14.610;2023-12-28T11:03:58;96982.16;;;5.58;70.20
4199;BME280;2113;50.946;14.610;2023-12-28T11:06:29;96985.91;;;5.56;69.92
4199;BME280;2113;50.946;14.610;2023-12-28T11:09:00;96971.84;;;5.57;70.62
4199;BME280;2113;50.946;14.610;2023-12-28T11:11:30;96971.03;;;5.56;70.52
4199;BME280;2113;50.946;14.610;2023-12-28T11:14:01;96977.75;;;5.50;71.23
4199;BME280;2113;50.946;14.610;2023-12-28T11:16:30;96976.25;;;5.56;70.73
4199;BME280;2113;50.946;14.610;2023-12-28T11:19:00;96979.03;;;5.63;70.24
4199;BME280;2113;50.946;14.610;2023-12-28T11:21:30;96976.41;;;5.63;70.13
4199;BME280;2113;50.946;14.610;2023-12-28T11:24:01;96977.72;;;5.67;70.39
4199;BME280;2113;50.946;14.610;2023-12-28T11:26:30;96977.22;;;5.63;70.69
4199;BME280;2113;50.946;14.610;2023-12-28T11:29:02;96985.75;;;5.57;70.72
4199;BME280;2113;50.946;14.610;2023-12-28T11:31:32;96982.31;;;5.57;71.14
4199;BME280;2113;50.946;14.610;2023-12-28T11:34:04;96979.53;;;5.58;70.88
4199;BME280;2113;50.946;14.610;2023-12-28T11:36:35;96968.56;;;5.71;69.84
4199;BME280;2113;50.946;14.610;2023-12-28T11:39:06;96976.41;;;5.71;70.20
4199;BME280;2113;50.946;14.610;2023-12-28T11:41:35;96976.75;;;5.60;70.71
4199;BME280;2113;50.946;14.610;2023-12-28T11:44:05;96986.22;;;5.61;70.92
4199;BME280;2113;50.946;14.610;2023-12-28T11:46:35;96971.53;;;5.60;70.74
4199;BME280;2113;50.946;14.610;2023-12-28T11:49:03;96971.84;;;5.65;71.25
4199;BME280;2113;50.946;14.610;2023-12-28T11:51:35;96974.78;;;5.62;71.64
4199;BME280;2113;50.946;14.610;2023-12-28T11:54:07;96972.00;;;5.71;70.61
4199;BME280;2113;50.946;14.610;2023-12-28T11:56:35;96976.09;;;5.66;70.23
4199;BME280;2113;50.946;14.610;2023-12-28T11:59:05;96977.09;;;5.65;71.91
4199;BME280;2113;50.946;14.610;2023-12-28T12:01:35;96977.09;;;5.65;70.64
4199;BME280;2113;50.946;14.610;2023-12-28T12:04:03;96980.00;;;5.62;71.26
4199;BME280;2113;50.946;14.610;2023-12-28T12:06:31;96971.69;;;5.66;70.96
4199;BME280;2113;50.946;14.610;2023-12-28T12:09:00;96968.88;;;5.68;71.17
4199;BME280;2113;50.946;14.610;2023-12-28T12:11:29;96971.44;;;5.84;70.62
4199;BME280;2113;50.946;14.610;2023-12-28T12:13:57;96967.38;;;5.82;71.22
4199;BME280;2113;50.946;14.610;2023-12-28T12:16:26;96970.81;;;5.82;70.77
4199;BME280;2113;50.946;14.610;2023-12-28T12:18:54;96977.34;;;5.86;71.36
4199;BME280;2113;50.946;14.610;2023-12-28T12:21:23;96977.66;;;5.91;70.52
4199;BME280;2113;50.946;14.610;2023-12-28T12:23:52;96975.72;;;5.93;70.78
4199;BME280;2113;50.946;14.610;2023-12-28T12:26:20;96972.13;;;5.78;71.66
4199;BME280;2113;50.946;14.610;2023-12-28T12:28:50;96975.84;;;5.92;71.12
4199;BME280;2113;50.946;14.610;2023-12-28T12:31:20;96976.53;;;5.86;71.16
4199;BME280;2113;50.946;14.610;2023-12-28T12:33:48;96979.63;;;5.81;71.51
4199;BME280;2113;50.946;14.610;2023-12-28T12:36:18;96975.56;;;5.78;72.67
4199;BME280;2113;50.946;14.610;2023-12-28T12:38:48;96976.03;;;5.82;71.94
4199;BME280;2113;50.946;14.610;2023-12-28T12:41:16;96982.91;;;5.91;71.73
4199;BME280;2113;50.946;14.610;2023-12-28T12:43:46;96964.25;;;5.94;71.27
4199;BME280;2113;50.946;14.610;2023-12-28T12:46:16;96975.34;;;5.96;71.47
4199;BME280;2113;50.946;14.610;2023-12-28T12:48:54;96957.84;;;5.97;71.41
4199;BME280;2113;50.946;14.610;2023-12-28T12:51:22;96970.75;;;5.90;71.47
4199;BME280;2113;50.946;14.610;2023-12-28T12:53:56;96973.38;;;5.90;72.09
4199;BME280;2113;50.946;14.610;2023-12-28T12:56:26;96975.03;;;5.99;72.06
4199;BME280;2113;50.946;14.610;2023-12-28T12:58:54;96967.19;;;5.99;72.18
4199;BME280;2113;50.946;14.610;2023-12-28T13:01:24;96971.13;;;5.95;72.55
4199;BME280;2113;50.946;14.610;2023-12-28T13:03:52;96957.53;;;6.00;72.14
4199;BME280;2113;50.946;14.610;2023-12-28T13:06:20;96956.03;;;5.97;71.68
4199;BME280;2113;50.946;14.610;2023-12-28T13:08:50;96959.44;;;6.06;71.91
4199;BME280;2113;50.946;14.610;2023-12-28T13:11:18;96959.63;;;6.04;71.62
4199;BME280;2113;50.946;14.610;2023-12-28T13:13:52;96966.81;;;6.42;70.29
4199;BME280;2113;50.946;14.610;2023-12-28T13:16:21;96965.28;;;6.47;70.27
4199;BME280;2113;50.946;14.610;2023-12-28T13:18:52;96963.72;;;6.38;70.91
4199;BME280;2113;50.946;14.610;2023-12-28T13:21:21;96973.44;;;6.52;70.61
4199;BME280;2113;50.946;14.610;2023-12-28T13:23:49;96967.16;;;6.61;69.04
4199;BME280;2113;50.946;14.610;2023-12-28T13:26:17;96966.03;;;6.64;69.73
4199;BME280;2113;50.946;14.610;2023-12-28T13:28:45;96971.53;;;6.46;70.34
4199;BME280;2113;50.946;14.610;2023-12-28T13:31:15;96983.13;;;6.21;70.84
4199;BME280;2113;50.946;14.610;2023-12-28T13:33:46;96990.84;;;6.14;71.67
4199;BME280;2113;50.946;14.610;2023-12-28T13:36:15;96976.31;;;6.03;72.10
4199;BME280;2113;50.946;14.610;2023-12-28T13:38:46;96970.75;;;5.98;72.68